sensor_id;sensor_type;location;lat;lon;timestamp;P1;durP1;ratioP1;P2;durP2;ratioP2
4464;SDS011;2245;48.136;13.428;2022-10-23T00:00:58;3.93;;;1.33;;
4464;SDS011;2245;48.136;13.428;2022-10-23T00:03:27;4.30;;;1.73;;
4464;SDS011;2245;48.136;13.428;2022-10-23T00:05:59;1.37;;;1.00;;
4464;SDS011;2245;48.136;13.428;2022-10-23T00:08:31;3.47;;;1.10;;
4464;SDS011;2245;48.136;13.428;2022-10-23T00:11:07;3.07;;;1.60;;
4464;SDS011;2245;48.136;13.428;2022-10-23T00:13:42;3.47;;;1.20;;
4464;SDS011;2245;48.136;13.428;2022-10-23T00:16:11;4.87;;;1.27;;
4464;SDS011;2245;48.136;13.428;2022-10-23T00:18:39;2.20;;;1.93;;
4464;SDS011;2245;48.136;13.428;2022-10-23T00:21:13;1.50;;;1.23;;
4464;SDS011;2245;48.136;13.428;2022-10-23T00:23:42;4.73;;;1.17;;
4464;SDS011;2245;48.136;13.428;2022-10-23T00:26:09;1.07;;;1.00;;
4464;SDS011;2245;48.136;13.428;2022-10-23T00:28:48;3.73;;;1.13;;
4464;SDS011;2245;48.136;13.428;2022-10-23T00:31:19;1.30;;;1.20;;
4464;SDS011;2245;48.136;13.428;2022-10-23T00:33:48;2.30;;;0.90;;
4464;SDS011;2245;48.136;13.428;2022-10-23T00:36:25;3.40;;;1.23;;
4464;SDS011;2245;48.136;13.428;2022-10-23T00:38:54;4.10;;;1.27;;
4464;SDS011;2245;48.136;13.428;2022-10-23T00:41:59;1.27;;;1.17;;
4464;SDS011;2245;48.136;13.428;2022-10-23T00:47:33;3.30;;;1.40;;
4464;SDS011;2245;48.136;13.428;2022-10-23T00:50:05;4.07;;;1.30;;
4464;SDS011;2245;48.136;13.428;2022-10-23T00:52:32;1.07;;;0.97;;
4464;SDS011;2245;48.136;13.428;2022-10-23T00:55:05;3.33;;;1.33;;
4464;SDS011;2245;48.136;13.428;2022-10-23T00:57:38;3.60;;;1.27;;
4464;SDS011;2245;48.136;13.428;2022-10-23T01:00:17;1.83;;;1.10;;
4464;SDS011;2245;48.136;13.428;2022-10-23T01:02:50;1.90;;;1.40;;
4464;SDS011;2245;48.136;13.428;2022-10-23T01:05:19;1.63;;;1.50;;
4464;SDS011;2245;48.136;13.428;2022-10-23T01:08:00;3.93;;;1.23;;
4464;SDS011;2245;48.136;13.428;2022-10-23T01:10:32;1.90;;;1.40;;
4464;SDS011;2245;48.136;13.428;2022-10-23T01:13:11;2.77;;;1.53;;
4464;SDS011;2245;48.136;13.428;2022-10-23T01:15:51;1.73;;;1.40;;
4464;SDS011;2245;48.136;13.428;2022-10-23T01:18:26;6.40;;;2.10;;
4464;SDS011;2245;48.136;13.428;2022-10-23T01:20:58;1.70;;;1.60;;
4464;SDS011;2245;48.136;13.428;2022-10-23T01:23:38;2.07;;;1.83;;
4464;SDS011;2245;48.136;13.428;2022-10-23T01:29:06;2.20;;;2.00;;
4464;SDS011;2245;48.136;13.428;2022-10-23T01:31:41;5.83;;;1.70;;
4464;SDS011;2245;48.136;13.428;2022-10-23T01:34:21;1.87;;;1.77;;
4464;SDS011;2245;48.136;13.428;2022-10-23T01:37:00;2.30;;;2.10;;
4464;SDS011;2245;48.136;13.428;2022-10-23T01:39:39;4.13;;;1.63;;
4464;SDS011;2245;48.136;13.428;2022-10-23T01:42:12;9.30;;;1.87;;
4464;SDS011;2245;48.136;13.428;2022-10-23T01:44:43;2.67;;;1.97;;
4464;SDS011;2245;48.136;13.428;2022-10-23T01:47:18;4.50;;;1.80;;
4464;SDS011;2245;48.136;13.428;2022-10-23T01:49:56;3.77;;;1.80;;
4464;SDS011;2245;48.136;13.428;2022-10-23T01:52:30;2.87;;;1.87;;
4464;SDS011;2245;48.136;13.428;2022-10-23T01:55:02;4.83;;;1.73;;
4464;SDS011;2245;48.136;13.428;2022-10-23T01:57:30;1.80;;;1.70;;
4464;SDS011;2245;48.136;13.428;2022-10-23T02:00:00;1.57;;;1.47;;
4464;SDS011;2245;48.136;13.428;2022-10-23T02:02:30;1.90;;;1.80;;
4464;SDS011;2245;48.136;13.428;2022-10-23T02:04:59;1.90;;;1.70;;
4464;SDS011;2245;48.136;13.428;2022-10-23T02:07:34;2.83;;;1.30;;
4464;SDS011;2245;48.136;13.428;2022-10-23T02:10:02;3.10;;;2.13;;
4464;SDS011;2245;48.136;13.428;2022-10-23T02:12:38;1.93;;;1.53;;
4464;SDS011;2245;48.136;13.428;2022-10-23T02:15:10;3.80;;;1.70;;
4464;SDS011;2245;48.136;13.428;2022-10-23T02:17:58;2.00;;;1.90;;
4464;SDS011;2245;48.136;13.428;2022-10-23T02:20:34;2.23;;;1.57;;
4464;SDS011;2245;48.136;13.428;2022-10-23T02:23:04;1.77;;;1.67;;
4464;SDS011;2245;48.136;13.428;2022-10-23T02:25:50;2.63;;;1.70;;
4464;SDS011;2245;48.136;13.428;2022-10-23T02:28:24;3.00;;;2.20;;
4464;SDS011;2245;48.136;13.428;2022-10-23T02:31:00;2.93;;;2.70;;
4464;SDS011;2245;48.136;13.428;2022-10-23T02:33:33;2.00;;;1.80;;
4464;SDS011;2245;48.136;13.428;2022-10-23T02:36:11;1.90;;;1.80;;
4464;SDS011;2245;48.136;13.428;2022-10-23T02:38:39;2.50;;;2.20;;
4464;SDS011;2245;48.136;13.428;2022-10-23T02:41:14;1.93;;;1.73;;
4464;SDS011;2245;48.136;13.428;2022-10-23T02:44:03;1.97;;;1.80;;
4464;SDS011;2245;48.136;13.428;2022-10-23T02:46:45;3.07;;;1.83;;
4464;SDS011;2245;48.136;13.428;2022-10-23T02:49:30;5.13;;;1.90;;
4464;SDS011;2245;48.136;13.428;2022-10-23T02:52:13;5.07;;;1.80;;
4464;SDS011;2245;48.136;13.428;2022-10-23T02:54:49;1.73;;;1.63;;
4464;SDS011;2245;48.136;13.428;2022-10-23T02:57:38;3.87;;;2.83;;
4464;SDS011;2245;48.136;13.428;2022-10-23T03:00:11;2.37;;;2.00;;
4464;SDS011;2245;48.136;13.428;2022-10-23T03:02:43;1.60;;;1.50;;
4464;SDS011;2245;48.136;13.428;2022-10-23T03:05:19;1.80;;;1.70;;
4464;SDS011;2245;48.136;13.428;2022-10-23T03:08:01;8.03;;;1.77;;
4464;SDS011;2245;48.136;13.428;2022-10-23T03:10:28;2.63;;;2.20;;
4464;SDS011;2245;48.136;13.428;2022-10-23T03:13:16;4.63;;;1.93;;
4464;SDS011;2245;48.136;13.428;2022-10-23T03:15:48;3.17;;;1.57;;
4464;SDS011;2245;48.136;13.428;2022-10-23T03:18:27;2.20;;;2.10;;
4464;SDS011;2245;48.136;13.428;2022-10-23T03:20:57;5.13;;;1.27;;
4464;SDS011;2245;48.136;13.428;2022-10-23T03:23:29;1.77;;;1.67;;
4464;SDS011;2245;48.136;13.428;2022-10-23T03:36:09;2.10;;;1.87;;
4464;SDS011;2245;48.136;13.428;2022-10-23T03:38:44;6.10;;;2.10;;
4464;SDS011;2245;48.136;13.428;2022-10-23T03:41:11;1.60;;;1.53;;
4464;SDS011;2245;48.136;13.428;2022-10-23T03:43:38;2.60;;;1.47;;
4464;SDS011;2245;48.136;13.428;2022-10-23T03:46:09;1.80;;;1.70;;
4464;SDS011;2245;48.136;13.428;2022-10-23T03:48:37;3.53;;;1.73;;
4464;SDS011;2245;48.136;13.428;2022-10-23T03:51:11;2.00;;;1.90;;
4464;SDS011;2245;48.136;13.428;2022-10-23T03:53:51;2.37;;;2.17;;
4464;SDS011;2245;48.136;13.428;2022-10-23T03:56:21;6.40;;;2.07;;
4464;SDS011;2245;48.136;13.428;2022-10-23T03:58:58;5.27;;;1.83;;
4464;SDS011;2245;48.136;13.428;2022-10-23T04:01:31;2.80;;;1.77;;
4464;SDS011;2245;48.136;13.428;2022-10-23T04:04:00;1.90;;;1.67;;
4464;SDS011;2245;48.136;13.428;2022-10-23T04:06:31;3.33;;;2.43;;
4464;SDS011;2245;48.136;13.428;2022-10-23T04:09:02;2.30;;;1.83;;
4464;SDS011;2245;48.136;13.428;2022-10-23T04:11:31;4.77;;;1.50;;
4464;SDS011;2245;48.136;13.428;2022-10-23T04:14:00;3.10;;;1.80;;
4464;SDS011;2245;48.136;13.428;2022-10-23T04:16:27;1.60;;;1.50;;
4464;SDS011;2245;48.136;13.428;2022-10-23T04:19:01;5.13;;;1.83;;
4464;SDS011;2245;48.136;13.428;2022-10-23T04:21:32;1.60;;;1.50;;
4464;SDS011;2245;48.136;13.428;2022-10-23T04:24:09;1.63;;;1.50;;
4464;SDS011;2245;48.136;13.428;2022-10-23T04:26:39;4.23;;;1.77;;
4464;SDS011;2245;48.136;13.428;2022-10-23T04:29:17;2.90;;;1.90;;
4464;SDS011;2245;48.136;13.428;2022-10-23T04:31:52;3.37;;;1.93;;
4464;SDS011;2245;48.136;13.428;2022-10-23T04:34:22;2.27;;;2.07;;
4464;SDS011;2245;48.136;13.428;2022-10-23T04:43:35;4.63;;;2.30;;
4464;SDS011;2245;48.136;13.428;2022-10-23T04:46:02;6.70;;;1.70;;
4464;SDS011;2245;48.136;13.428;2022-10-23T04:48:33;2.80;;;1.60;;
4464;SDS011;2245;48.136;13.428;2022-10-23T04:51:03;2.00;;;1.80;;
4464;SDS011;2245;48.136;13.428;2022-10-23T04:53:34;2.87;;;1.77;;
4464;SDS011;2245;48.136;13.428;2022-10-23T04:56:06;3.60;;;2.90;;
4464;SDS011;2245;48.136;13.428;2022-10-23T04:58:39;11.47;;;3.10;;
4464;SDS011;2245;48.136;13.428;2022-10-23T05:01:11;3.13;;;2.17;;
4464;SDS011;2245;48.136;13.428;2022-10-23T05:03:49;6.20;;;2.30;;
4464;SDS011;2245;48.136;13.428;2022-10-23T05:06:20;21.10;;;17.17;;
4464;SDS011;2245;48.136;13.428;2022-10-23T05:08:50;3.57;;;3.23;;
4464;SDS011;2245;48.136;13.428;2022-10-23T05:11:20;5.43;;;3.87;;
4464;SDS011;2245;48.136;13.428;2022-10-23T05:13:53;8.90;;;4.77;;
4464;SDS011;2245;48.136;13.428;2022-10-23T05:16:24;8.00;;;3.03;;
4464;SDS011;2245;48.136;13.428;2022-10-23T05:19:03;4.83;;;2.97;;
4464;SDS011;2245;48.136;13.428;2022-10-23T05:21:36;3.47;;;2.80;;
4464;SDS011;2245;48.136;13.428;2022-10-23T05:24:09;4.10;;;2.80;;
4464;SDS011;2245;48.136;13.428;2022-10-23T05:26:38;2.70;;;2.50;;
4464;SDS011;2245;48.136;13.428;2022-10-23T05:29:12;4.67;;;3.10;;
4464;SDS011;2245;48.136;13.428;2022-10-23T05:31:43;6.30;;;2.83;;
4464;SDS011;2245;48.136;13.428;2022-10-23T05:34:15;1.83;;;1.70;;
4464;SDS011;2245;48.136;13.428;2022-10-23T05:36:49;3.07;;;2.23;;
4464;SDS011;2245;48.136;13.428;2022-10-23T05:39:19;3.70;;;2.20;;
4464;SDS011;2245;48.136;13.428;2022-10-23T05:41:48;4.80;;;2.40;;
4464;SDS011;2245;48.136;13.428;2022-10-23T05:44:25;2.67;;;2.00;;
4464;SDS011;2245;48.136;13.428;2022-10-23T05:46:54;13.47;;;10.83;;
4464;SDS011;2245;48.136;13.428;2022-10-23T05:49:22;7.20;;;5.60;;
4464;SDS011;2245;48.136;13.428;2022-10-23T05:51:57;9.60;;;6.63;;
4464;SDS011;2245;48.136;13.428;2022-10-23T05:54:33;6.40;;;3.90;;
4464;SDS011;2245;48.136;13.428;2022-10-23T05:57:03;7.23;;;3.67;;
4464;SDS011;2245;48.136;13.428;2022-10-23T05:59:38;6.83;;;4.40;;
4464;SDS011;2245;48.136;13.428;2022-10-23T06:02:10;6.53;;;5.40;;
4464;SDS011;2245;48.136;13.428;2022-10-23T06:04:42;5.07;;;3.50;;
4464;SDS011;2245;48.136;13.428;2022-10-23T06:07:13;4.60;;;3.63;;
4464;SDS011;2245;48.136;13.428;2022-10-23T06:09:46;2.80;;;2.60;;
4464;SDS011;2245;48.136;13.428;2022-10-23T06:12:17;3.03;;;2.20;;
4464;SDS011;2245;48.136;13.428;2022-10-23T06:14:47;12.27;;;8.57;;
4464;SDS011;2245;48.136;13.428;2022-10-23T06:17:18;5.37;;;3.90;;
4464;SDS011;2245;48.136;13.428;2022-10-23T06:19:51;5.17;;;4.37;;
4464;SDS011;2245;48.136;13.428;2022-10-23T06:22:24;4.40;;;3.37;;
4464;SDS011;2245;48.136;13.428;2022-10-23T06:24:54;5.77;;;2.40;;
4464;SDS011;2245;48.136;13.428;2022-10-23T06:27:26;4.80;;;3.83;;
4464;SDS011;2245;48.136;13.428;2022-10-23T06:29:57;15.73;;;5.10;;
4464;SDS011;2245;48.136;13.428;2022-10-23T06:32:33;9.60;;;5.00;;
4464;SDS011;2245;48.136;13.428;2022-10-23T06:35:05;3.73;;;2.53;;
4464;SDS011;2245;48.136;13.428;2022-10-23T06:37:42;4.30;;;2.00;;
4464;SDS011;2245;48.136;13.428;2022-10-23T06:40:09;7.03;;;2.77;;
4464;SDS011;2245;48.136;13.428;2022-10-23T06:42:51;5.77;;;3.40;;
4464;SDS011;2245;48.136;13.428;2022-10-23T06:45:22;5.93;;;4.50;;
4464;SDS011;2245;48.136;13.428;2022-10-23T06:48:02;8.30;;;4.90;;
4464;SDS011;2245;48.136;13.428;2022-10-23T06:53:53;2.20;;;2.03;;
4464;SDS011;2245;48.136;13.428;2022-10-23T06:56:33;8.93;;;7.13;;
4464;SDS011;2245;48.136;13.428;2022-10-23T06:59:06;9.67;;;8.10;;
4464;SDS011;2245;48.136;13.428;2022-10-23T07:01:44;7.30;;;6.70;;
4464;SDS011;2245;48.136;13.428;2022-10-23T07:04:11;7.60;;;6.30;;
4464;SDS011;2245;48.136;13.428;2022-10-23T07:06:54;6.70;;;4.60;;
4464;SDS011;2245;48.136;13.428;2022-10-23T07:09:23;5.40;;;4.73;;
4464;SDS011;2245;48.136;13.428;2022-10-23T07:11:52;4.60;;;3.53;;
4464;SDS011;2245;48.136;13.428;2022-10-23T07:14:24;6.27;;;4.47;;
4464;SDS011;2245;48.136;13.428;2022-10-23T07:17:02;6.07;;;3.60;;
4464;SDS011;2245;48.136;13.428;2022-10-23T07:19:40;3.80;;;3.27;;
4464;SDS011;2245;48.136;13.428;2022-10-23T07:22:18;4.57;;;3.23;;
4464;SDS011;2245;48.136;13.428;2022-10-23T07:24:54;4.37;;;3.53;;
4464;SDS011;2245;48.136;13.428;2022-10-23T07:30:21;4.57;;;2.80;;
4464;SDS011;2245;48.136;13.428;2022-10-23T07:35:50;9.10;;;5.07;;
4464;SDS011;2245;48.136;13.428;2022-10-23T07:38:20;4.00;;;3.40;;
4464;SDS011;2245;48.136;13.428;2022-10-23T07:40:51;5.83;;;3.90;;
4464;SDS011;2245;48.136;13.428;2022-10-23T07:43:18;5.10;;;3.37;;
4464;SDS011;2245;48.136;13.428;2022-10-23T07:45:47;10.40;;;3.03;;
4464;SDS011;2245;48.136;13.428;2022-10-23T07:48:18;8.73;;;3.47;;
4464;SDS011;2245;48.136;13.428;2022-10-23T07:50:58;2.70;;;2.50;;
4464;SDS011;2245;48.136;13.428;2022-10-23T07:53:32;3.73;;;2.20;;
4464;SDS011;2245;48.136;13.428;2022-10-23T07:56:09;2.87;;;2.67;;
4464;SDS011;2245;48.136;13.428;2022-10-23T07:58:41;5.23;;;2.20;;
4464;SDS011;2245;48.136;13.428;2022-10-23T08:01:18;4.43;;;3.00;;
4464;SDS011;2245;48.136;13.428;2022-10-23T08:03:48;2.60;;;2.40;;
4464;SDS011;2245;48.136;13.428;2022-10-23T08:06:17;6.77;;;2.80;;
4464;SDS011;2245;48.136;13.428;2022-10-23T08:08:46;4.30;;;2.97;;
4464;SDS011;2245;48.136;13.428;2022-10-23T08:11:19;8.07;;;2.57;;
4464;SDS011;2245;48.136;13.428;2022-10-23T08:13:52;2.97;;;2.77;;
4464;SDS011;2245;48.136;13.428;2022-10-23T08:16:19;2.33;;;2.10;;
4464;SDS011;2245;48.136;13.428;2022-10-23T08:18:48;2.80;;;2.10;;
4464;SDS011;2245;48.136;13.428;2022-10-23T08:21:15;3.10;;;2.50;;
4464;SDS011;2245;48.136;13.428;2022-10-23T08:23:45;1.80;;;1.70;;
4464;SDS011;2245;48.136;13.428;2022-10-23T08:26:14;1.60;;;1.50;;
4464;SDS011;2245;48.136;13.428;2022-10-23T08:28:41;1.53;;;1.43;;
4464;SDS011;2245;48.136;13.428;2022-10-23T08:31:08;4.17;;;1.70;;
4464;SDS011;2245;48.136;13.428;2022-10-23T08:33:37;1.60;;;1.33;;
4464;SDS011;2245;48.136;13.428;2022-10-23T08:36:12;1.17;;;1.07;;
4464;SDS011;2245;48.136;13.428;2022-10-23T08:38:44;1.47;;;1.37;;
4464;SDS011;2245;48.136;13.428;2022-10-23T08:41:21;1.93;;;1.27;;
4464;SDS011;2245;48.136;13.428;2022-10-23T08:43:57;1.57;;;1.33;;
4464;SDS011;2245;48.136;13.428;2022-10-23T08:46:34;4.90;;;1.60;;
4464;SDS011;2245;48.136;13.428;2022-10-23T08:49:08;7.90;;;1.70;;
4464;SDS011;2245;48.136;13.428;2022-10-23T08:51:50;1.73;;;1.40;;
4464;SDS011;2245;48.136;13.428;2022-10-23T08:54:33;2.10;;;1.33;;
4464;SDS011;2245;48.136;13.428;2022-10-23T08:57:12;3.43;;;2.80;;
4464;SDS011;2245;48.136;13.428;2022-10-23T08:59:43;5.70;;;5.13;;
4464;SDS011;2245;48.136;13.428;2022-10-23T09:02:15;7.47;;;2.97;;
4464;SDS011;2245;48.136;13.428;2022-10-23T09:04:47;1.60;;;1.50;;
4464;SDS011;2245;48.136;13.428;2022-10-23T09:07:37;2.30;;;2.07;;
4464;SDS011;2245;48.136;13.428;2022-10-23T09:10:20;4.20;;;2.40;;
4464;SDS011;2245;48.136;13.428;2022-10-23T09:13:15;9.57;;;6.43;;
4464;SDS011;2245;48.136;13.428;2022-10-23T09:15:52;1.73;;;1.67;;
4464;SDS011;2245;48.136;13.428;2022-10-23T09:18:25;2.33;;;2.13;;
4464;SDS011;2245;48.136;13.428;2022-10-23T09:20:53;1.73;;;1.63;;
4464;SDS011;2245;48.136;13.428;2022-10-23T09:23:37;4.73;;;1.80;;
4464;SDS011;2245;48.136;13.428;2022-10-23T09:26:06;6.23;;;2.70;;
4464;SDS011;2245;48.136;13.428;2022-10-23T09:28:40;2.03;;;1.60;;
4464;SDS011;2245;48.136;13.428;2022-10-23T09:31:22;2.93;;;1.50;;
4464;SDS011;2245;48.136;13.428;2022-10-23T09:33:57;1.50;;;1.27;;
4464;SDS011;2245;48.136;13.428;2022-10-23T09:36:31;1.07;;;1.07;;
4464;SDS011;2245;48.136;13.428;2022-10-23T09:39:25;1.30;;;1.20;;
4464;SDS011;2245;48.136;13.428;2022-10-23T09:41:58;3.83;;;1.73;;
4464;SDS011;2245;48.136;13.428;2022-10-23T09:44:27;1.63;;;1.17;;
4464;SDS011;2245;48.136;13.428;2022-10-23T09:46:58;1.87;;;1.30;;
4464;SDS011;2245;48.136;13.428;2022-10-23T09:49:29;1.50;;;1.40;;
4464;SDS011;2245;48.136;13.428;2022-10-23T09:52:22;2.07;;;1.90;;
4464;SDS011;2245;48.136;13.428;2022-10-23T09:54:53;2.00;;;1.90;;
4464;SDS011;2245;48.136;13.428;2022-10-23T09:57:44;2.80;;;1.57;;
4464;SDS011;2245;48.136;13.428;2022-10-23T10:00:16;3.80;;;1.97;;
4464;SDS011;2245;48.136;13.428;2022-10-23T10:02:57;2.20;;;1.30;;
4464;SDS011;2245;48.136;13.428;2022-10-23T10:05:25;1.37;;;1.20;;
4464;SDS011;2245;48.136;13.428;2022-10-23T10:07:58;3.03;;;1.20;;
4464;SDS011;2245;48.136;13.428;2022-10-23T10:10:34;1.33;;;1.10;;
4464;SDS011;2245;48.136;13.428;2022-10-23T10:13:10;1.60;;;1.30;;
4464;SDS011;2245;48.136;13.428;2022-10-23T10:15:48;1.80;;;1.67;;
4464;SDS011;2245;48.136;13.428;2022-10-23T10:18:20;2.00;;;1.60;;
4464;SDS011;2245;48.136;13.428;2022-10-23T10:20:53;3.73;;;1.87;;
4464;SDS011;2245;48.136;13.428;2022-10-23T10:23:33;3.70;;;1.77;;
4464;SDS011;2245;48.136;13.428;2022-10-23T10:26:10;3.43;;;2.70;;
4464;SDS011;2245;48.136;13.428;2022-10-23T10:28:51;1.50;;;1.40;;
4464;SDS011;2245;48.136;13.428;2022-10-23T10:31:33;2.53;;;1.70;;
4464;SDS011;2245;48.136;13.428;2022-10-23T10:34:05;1.43;;;1.33;;
4464;SDS011;2245;48.136;13.428;2022-10-23T10:36:40;1.73;;;1.63;;
4464;SDS011;2245;48.136;13.428;2022-10-23T10:39:20;1.37;;;1.23;;
4464;SDS011;2245;48.136;13.428;2022-10-23T10:42:04;0.90;;;0.90;;
4464;SDS011;2245;48.136;13.428;2022-10-23T10:44:57;1.23;;;1.13;;
4464;SDS011;2245;48.136;13.428;2022-10-23T10:47:36;4.83;;;1.07;;
4464;SDS011;2245;48.136;13.428;2022-10-23T10:50:16;2.07;;;1.70;;
4464;SDS011;2245;48.136;13.428;2022-10-23T10:52:45;1.33;;;1.23;;
4464;SDS011;2245;48.136;13.428;2022-10-23T10:55:20;2.77;;;1.50;;
4464;SDS011;2245;48.136;13.428;2022-10-23T10:57:54;3.07;;;1.20;;
4464;SDS011;2245;48.136;13.428;2022-10-23T11:00:24;2.03;;;1.53;;
4464;SDS011;2245;48.136;13.428;2022-10-23T11:02:56;1.53;;;1.43;;
4464;SDS011;2245;48.136;13.428;2022-10-23T11:12:19;1.43;;;1.10;;
4464;SDS011;2245;48.136;13.428;2022-10-23T11:14:56;3.50;;;1.03;;
4464;SDS011;2245;48.136;13.428;2022-10-23T11:17:28;4.40;;;1.27;;
4464;SDS011;2245;48.136;13.428;2022-10-23T11:20:04;2.73;;;1.03;;
4464;SDS011;2245;48.136;13.428;2022-10-23T11:22:45;2.43;;;1.50;;
4464;SDS011;2245;48.136;13.428;2022-10-23T11:25:31;1.10;;;1.00;;
4464;SDS011;2245;48.136;13.428;2022-10-23T11:28:20;2.13;;;1.30;;
4464;SDS011;2245;48.136;13.428;2022-10-23T11:30:58;2.20;;;1.20;;
4464;SDS011;2245;48.136;13.428;2022-10-23T11:33:50;6.00;;;1.30;;
4464;SDS011;2245;48.136;13.428;2022-10-23T11:36:42;2.87;;;1.93;;
4464;SDS011;2245;48.136;13.428;2022-10-23T11:39:18;1.13;;;1.13;;
4464;SDS011;2245;48.136;13.428;2022-10-23T11:41:56;2.40;;;1.10;;
4464;SDS011;2245;48.136;13.428;2022-10-23T11:44:37;1.43;;;1.23;;
4464;SDS011;2245;48.136;13.428;2022-10-23T11:47:32;6.23;;;1.00;;
4464;SDS011;2245;48.136;13.428;2022-10-23T11:50:22;1.03;;;0.93;;
4464;SDS011;2245;48.136;13.428;2022-10-23T11:53:03;1.37;;;0.90;;
4464;SDS011;2245;48.136;13.428;2022-10-23T11:55:36;1.47;;;0.80;;
4464;SDS011;2245;48.136;13.428;2022-10-23T11:58:20;1.77;;;1.17;;
4464;SDS011;2245;48.136;13.428;2022-10-23T12:00:58;1.10;;;1.00;;
4464;SDS011;2245;48.136;13.428;2022-10-23T12:03:45;1.10;;;1.10;;
4464;SDS011;2245;48.136;13.428;2022-10-23T12:06:20;4.83;;;1.00;;
4464;SDS011;2245;48.136;13.428;2022-10-23T12:08:49;4.00;;;1.00;;
4464;SDS011;2245;48.136;13.428;2022-10-23T12:11:24;0.83;;;0.83;;
4464;SDS011;2245;48.136;13.428;2022-10-23T12:14:24;1.57;;;1.10;;
4464;SDS011;2245;48.136;13.428;2022-10-23T12:17:14;1.00;;;0.90;;
4464;SDS011;2245;48.136;13.428;2022-10-23T12:19:53;4.57;;;0.90;;
4464;SDS011;2245;48.136;13.428;2022-10-23T12:22:32;7.40;;;1.10;;
4464;SDS011;2245;48.136;13.428;2022-10-23T12:25:07;1.27;;;1.27;;
4464;SDS011;2245;48.136;13.428;2022-10-23T12:27:43;1.17;;;1.00;;
4464;SDS011;2245;48.136;13.428;2022-10-23T12:30:21;1.17;;;1.03;;
4464;SDS011;2245;48.136;13.428;2022-10-23T12:33:04;1.30;;;1.20;;
4464;SDS011;2245;48.136;13.428;2022-10-23T12:38:43;4.43;;;1.17;;
4464;SDS011;2245;48.136;13.428;2022-10-23T12:44:39;1.07;;;1.00;;
4464;SDS011;2245;48.136;13.428;2022-10-23T12:47:10;0.90;;;0.90;;
4464;SDS011;2245;48.136;13.428;2022-10-23T12:49:46;2.80;;;1.30;;
4464;SDS011;2245;48.136;13.428;2022-10-23T12:52:27;1.20;;;1.20;;
4464;SDS011;2245;48.136;13.428;2022-10-23T12:55:17;0.80;;;0.80;;
4464;SDS011;2245;48.136;13.428;2022-10-23T12:57:54;4.53;;;1.13;;
4464;SDS011;2245;48.136;13.428;2022-10-23T13:00:31;2.53;;;1.27;;
4464;SDS011;2245;48.136;13.428;2022-10-23T13:03:08;2.10;;;0.90;;
4464;SDS011;2245;48.136;13.428;2022-10-23T13:05:39;2.07;;;1.53;;
4464;SDS011;2245;48.136;13.428;2022-10-23T13:08:17;1.20;;;1.10;;
4464;SDS011;2245;48.136;13.428;2022-10-23T13:10:49;3.07;;;1.20;;
4464;SDS011;2245;48.136;13.428;2022-10-23T13:13:23;2.10;;;1.10;;
4464;SDS011;2245;48.136;13.428;2022-10-23T13:16:11;2.17;;;1.50;;
4464;SDS011;2245;48.136;13.428;2022-10-23T13:25:50;2.40;;;1.23;;
4464;SDS011;2245;48.136;13.428;2022-10-23T13:28:30;1.60;;;1.50;;
4464;SDS011;2245;48.136;13.428;2022-10-23T13:31:24;1.50;;;0.93;;
4464;SDS011;2245;48.136;13.428;2022-10-23T13:34:13;2.43;;;1.03;;
4464;SDS011;2245;48.136;13.428;2022-10-23T13:36:54;6.40;;;1.00;;
4464;SDS011;2245;48.136;13.428;2022-10-23T13:39:26;0.97;;;0.87;;
4464;SDS011;2245;48.136;13.428;2022-10-23T13:42:00;1.70;;;1.17;;
4464;SDS011;2245;48.136;13.428;2022-10-23T13:44:51;1.80;;;1.20;;
4464;SDS011;2245;48.136;13.428;2022-10-23T13:47:21;1.73;;;1.10;;
4464;SDS011;2245;48.136;13.428;2022-10-23T13:50:03;1.53;;;1.43;;
4464;SDS011;2245;48.136;13.428;2022-10-23T13:52:37;2.07;;;1.97;;
4464;SDS011;2245;48.136;13.428;2022-10-23T13:55:12;1.50;;;1.40;;
4464;SDS011;2245;48.136;13.428;2022-10-23T13:57:52;2.40;;;1.07;;
4464;SDS011;2245;48.136;13.428;2022-10-23T14:00:24;2.20;;;1.40;;
4464;SDS011;2245;48.136;13.428;2022-10-23T14:02:53;1.10;;;1.10;;
4464;SDS011;2245;48.136;13.428;2022-10-23T14:05:40;2.73;;;1.23;;
4464;SDS011;2245;48.136;13.428;2022-10-23T14:08:16;1.50;;;1.40;;
4464;SDS011;2245;48.136;13.428;2022-10-23T14:10:54;1.90;;;1.63;;
4464;SDS011;2245;48.136;13.428;2022-10-23T14:13:29;3.13;;;1.37;;
4464;SDS011;2245;48.136;13.428;2022-10-23T14:16:00;1.90;;;1.67;;
4464;SDS011;2245;48.136;13.428;2022-10-23T14:19:09;2.03;;;1.83;;
4464;SDS011;2245;48.136;13.428;2022-10-23T14:21:30;1.83;;;1.40;;
4464;SDS011;2245;48.136;13.428;2022-10-23T14:24:13;1.70;;;1.60;;
4464;SDS011;2245;48.136;13.428;2022-10-23T14:26:45;4.93;;;1.47;;
4464;SDS011;2245;48.136;13.428;2022-10-23T14:36:03;3.20;;;1.93;;
4464;SDS011;2245;48.136;13.428;2022-10-23T14:38:37;2.07;;;1.37;;
4464;SDS011;2245;48.136;13.428;2022-10-23T14:41:20;1.50;;;1.50;;
4464;SDS011;2245;48.136;13.428;2022-10-23T14:43:50;1.63;;;1.53;;
4464;SDS011;2245;48.136;13.428;2022-10-23T14:46:17;3.20;;;1.87;;
4464;SDS011;2245;48.136;13.428;2022-10-23T14:48:48;2.70;;;1.43;;
4464;SDS011;2245;48.136;13.428;2022-10-23T14:51:30;2.37;;;1.53;;
4464;SDS011;2245;48.136;13.428;2022-10-23T14:54:03;1.40;;;1.30;;
4464;SDS011;2245;48.136;13.428;2022-10-23T14:56:31;1.63;;;1.53;;
4464;SDS011;2245;48.136;13.428;2022-10-23T14:59:04;3.30;;;2.00;;
4464;SDS011;2245;48.136;13.428;2022-10-23T15:01:32;4.30;;;1.60;;
4464;SDS011;2245;48.136;13.428;2022-10-23T15:04:00;3.00;;;2.70;;
4464;SDS011;2245;48.136;13.428;2022-10-23T15:06:34;4.63;;;3.40;;
4464;SDS011;2245;48.136;13.428;2022-10-23T15:09:04;13.90;;;3.27;;
4464;SDS011;2245;48.136;13.428;2022-10-23T15:11:33;3.40;;;2.00;;
4464;SDS011;2245;48.136;13.428;2022-10-23T15:14:00;6.57;;;2.10;;
4464;SDS011;2245;48.136;13.428;2022-10-23T15:16:28;3.80;;;1.97;;
4464;SDS011;2245;48.136;13.428;2022-10-23T15:18:55;3.20;;;2.20;;
4464;SDS011;2245;48.136;13.428;2022-10-23T15:21:26;3.03;;;2.10;;
4464;SDS011;2245;48.136;13.428;2022-10-23T15:23:54;6.00;;;2.20;;
4464;SDS011;2245;48.136;13.428;2022-10-23T15:26:21;2.90;;;2.00;;
4464;SDS011;2245;48.136;13.428;2022-10-23T15:28:57;4.10;;;2.20;;
4464;SDS011;2245;48.136;13.428;2022-10-23T15:31:40;4.90;;;4.50;;
4464;SDS011;2245;48.136;13.428;2022-10-23T15:34:16;6.30;;;5.73;;
4464;SDS011;2245;48.136;13.428;2022-10-23T15:36:44;3.47;;;3.17;;
4464;SDS011;2245;48.136;13.428;2022-10-23T15:39:15;4.17;;;2.80;;
4464;SDS011;2245;48.136;13.428;2022-10-23T15:41:48;3.43;;;2.97;;
4464;SDS011;2245;48.136;13.428;2022-10-23T15:44:19;7.60;;;2.47;;
4464;SDS011;2245;48.136;13.428;2022-10-23T15:46:47;3.90;;;2.93;;
4464;SDS011;2245;48.136;13.428;2022-10-23T15:49:17;3.50;;;2.83;;
4464;SDS011;2245;48.136;13.428;2022-10-23T15:55:07;3.43;;;2.57;;
4464;SDS011;2245;48.136;13.428;2022-10-23T15:57:35;7.37;;;3.10;;
4464;SDS011;2245;48.136;13.428;2022-10-23T16:00:16;5.13;;;2.77;;
4464;SDS011;2245;48.136;13.428;2022-10-23T16:02:43;7.97;;;3.77;;
4464;SDS011;2245;48.136;13.428;2022-10-23T16:05:18;11.00;;;6.03;;
4464;SDS011;2245;48.136;13.428;2022-10-23T16:08:04;9.67;;;5.60;;
4464;SDS011;2245;48.136;13.428;2022-10-23T16:10:44;6.60;;;4.57;;
4464;SDS011;2245;48.136;13.428;2022-10-23T16:13:11;14.90;;;6.70;;
4464;SDS011;2245;48.136;13.428;2022-10-23T16:15:41;60.97;;;20.30;;
4464;SDS011;2245;48.136;13.428;2022-10-23T16:18:08;30.53;;;12.10;;
4464;SDS011;2245;48.136;13.428;2022-10-23T16:37:56;10.87;;;7.23;;
4464;SDS011;2245;48.136;13.428;2022-10-23T16:40:27;17.87;;;10.20;;
4464;SDS011;2245;48.136;13.428;2022-10-23T16:42:55;19.47;;;12.43;;
4464;SDS011;2245;48.136;13.428;2022-10-23T16:45:23;17.13;;;5.00;;
4464;SDS011;2245;48.136;13.428;2022-10-23T16:47:50;5.63;;;3.93;;
4464;SDS011;2245;48.136;13.428;2022-10-23T16:50:20;5.17;;;3.90;;
4464;SDS011;2245;48.136;13.428;2022-10-23T16:52:47;8.20;;;4.33;;
4464;SDS011;2245;48.136;13.428;2022-10-23T16:55:23;11.63;;;6.80;;
4464;SDS011;2245;48.136;13.428;2022-10-23T16:57:50;6.70;;;4.57;;
4464;SDS011;2245;48.136;13.428;2022-10-23T17:00:32;7.30;;;4.70;;
4464;SDS011;2245;48.136;13.428;2022-10-23T17:03:02;6.70;;;5.00;;
4464;SDS011;2245;48.136;13.428;2022-10-23T17:05:40;7.90;;;5.90;;